UGTBURMM

Guest
Details From UGTB - TBILISI
To URMM - MINERALNYYE VODY
Flight Number -
Tags generated
Created
Modified
Stats Distance 174 nm / 323 km
Max Altitude 22,900 ft / 6,980 m
Waypoints 3
Social Downloads 0
Likes 0
Share VATSIM

Download

Looking for another format? Having issues loading an existing format? Contact us
Advertisement - Login to hide

Notes

Basic altitude profile: - Ascent Rate: 2500ft/min - Ascent Speed: 250kts - Cruise Altitude: 35000ft - Cruise Speed: 420kts - Descent Rate: 1500ft/min - Descent Speed: 250kts Options: - Use NATs: yes - Use PACOTS: yes - Use low airways: yes - Use high airways: yes

Route

UGTB LAPTO URMM

ID Type Via Altitude Latitude Longitude Leg Dist Tot Dist Heading (true) Name
O UGTB APT - 0 ft / 0 m 41.66858˚ 44.95364˚ - 0 nm - TBILISI
LAPTO FIX - 22,900 ft / 6,980 m 42.63167˚ 44.19000˚ 67 nm 67 nm 330° / 329° -
O URMM APT - 0 ft / 0 m 44.22507˚ 43.08189˚ 107 nm 174 nm 334° / 333° MINERALNYYE VODY

Altitude Profile

Advertisement - Login to hide

Weather


0- 5 10 15 20 25 30 35+ Temperature / ° C

Clouds and Precipitation
Forecast for 2018-05-25 12:00 UTC. Updated 4 hours ago

Ground ~20,000 ft ~40,000 ft Winds

UGTB

Details ICAO UGTB (TBS)
Name TBILISI
Region Georgia
Timezone Asia/Tbilisi (UTC+4.0)
Stats Elevation 1,624 ft / 495 m (AMSL)
Location 41.668582° 44.953644°
Runways 2
Magnetic Variation 6.682° E

METAR

UGTB 251500Z 08005KT 040V120 9999 SCT050CB 28/07 Q1010 NOSIG

Decode

TAF

Not found

Departure Runways

ID Width Length Bearing (true) Bearing (mag) Surface Threshold Offset Overrun Length
13L 196 ft / 60 m 8,208 ft / 2,502 m 133.64° 126.96° Asphalt 0 ft / 0 m 0 ft / 0 m
13R 147 ft / 45 m 9,839 ft / 2,999 m 136.65° 129.97° Concrete 0 ft / 0 m 155 ft / 47 m
31L 147 ft / 45 m 9,839 ft / 2,999 m 316.67° 309.99° Concrete 0 ft / 0 m 150 ft / 46 m
31R 196 ft / 60 m 8,208 ft / 2,502 m 313.65° 306.97° Asphalt 0 ft / 0 m 0 ft / 0 m

URMM

Details ICAO URMM (MRV)
Name MINERALNYYE VODY
Region Russia
Timezone Europe/Moscow (UTC+3.0)
Stats Elevation 1,054 ft / 321 m (AMSL)
Location 44.225073° 43.081891°
Runways 1
Magnetic Variation 7.426° E

METAR

URMM 251500Z 29004MPS 9999 SCT045 BKN/// 25/17 Q1010 R30/090070 NOSIG RMK QFE729/0973

Decode

TAF

TAF URMM 251400Z 2515/2615 29003G08MPS 9999 BKN030 TX23/2611Z TN14/2602Z TEMPO 2515/2524 VRB05G12MPS 3100 -TSRAGR BKN011 BKN020CB TEMPO 2600/2606 3100 BR BKN011

Decode

Destination Runways

ID Width Length Bearing (true) Bearing (mag) Surface Threshold Offset Overrun Length
12 197 ft / 60 m 12,766 ft / 3,891 m 122.28° 114.85° Concrete 0 ft / 0 m 240 ft / 73 m
30 197 ft / 60 m 12,766 ft / 3,891 m 302.31° 294.88° Concrete 0 ft / 0 m 250 ft / 76 m

Popular Alternatives